createdAt,value
2022-10-17T00:01:03.685Z,77.53
2022-10-17T00:03:41.166Z,78.41
2022-10-17T00:06:18.128Z,78.29
2022-10-17T00:08:50.553Z,78.16
2022-10-17T00:11:27.409Z,77.67
2022-10-17T00:14:01.271Z,77.52
2022-10-17T00:16:38.093Z,77.57
2022-10-17T00:19:12.141Z,77.98
2022-10-17T00:21:45.385Z,78.73
2022-10-17T00:24:18.432Z,78.10
2022-10-17T00:26:56.463Z,77.69
2022-10-17T00:29:28.652Z,77.99
2022-10-17T00:32:01.728Z,78.97
2022-10-17T00:34:34.942Z,80.01
2022-10-17T00:37:07.176Z,81.33
2022-10-17T00:39:39.087Z,81.33
2022-10-17T00:42:16.608Z,79.61
2022-10-17T00:45:06.345Z,80.22
2022-10-17T00:47:40.017Z,79.71
2022-10-17T00:50:13.967Z,80.43
2022-10-17T00:52:47.982Z,79.93
2022-10-17T00:55:24.019Z,79.04
2022-10-17T00:58:00.561Z,79.61
2022-10-17T01:00:32.386Z,81.18
2022-10-17T01:03:04.623Z,81.07
2022-10-17T01:05:36.728Z,80.77
2022-10-17T01:08:09.981Z,80.67
2022-10-17T01:10:56.117Z,81.20
2022-10-17T01:13:39.620Z,80.74
2022-10-17T01:16:17.153Z,81.16
2022-10-17T01:18:59.532Z,81.86
2022-10-17T01:21:49.208Z,82.79
2022-10-17T01:24:50.313Z,83.26
2022-10-17T01:27:47.187Z,83.62
2022-10-17T01:30:57.444Z,84.20
2022-10-17T01:33:42.769Z,84.48
2022-10-17T01:36:20.738Z,85.20
2022-10-17T01:38:56.406Z,84.78
2022-10-17T01:41:37.570Z,84.50
2022-10-17T01:44:15.673Z,85.31
2022-10-17T01:46:52.233Z,85.69
2022-10-17T01:49:30.721Z,85.82
2022-10-17T01:52:07.253Z,86.80
2022-10-17T01:54:44.755Z,88.06
2022-10-17T01:57:22.062Z,89.17
2022-10-17T02:00:03.573Z,90.03
2022-10-17T02:02:43.045Z,89.81
2022-10-17T02:05:17.052Z,90.30
2022-10-17T02:07:48.480Z,90.37
2022-10-17T02:10:29.479Z,90.45
2022-10-17T02:13:17.947Z,90.42
2022-10-17T02:16:21.013Z,90.07
2022-10-17T02:19:09.246Z,90.35
2022-10-17T02:21:53.166Z,91.45
2022-10-17T02:24:36.763Z,91.46
2022-10-17T02:27:15.494Z,91.04
2022-10-17T02:29:52.629Z,91.65
2022-10-17T02:32:29.221Z,91.77
2022-10-17T02:35:03.423Z,93.58
2022-10-17T02:37:39.627Z,93.09
2022-10-17T02:40:14.559Z,93.25
2022-10-17T02:42:48.691Z,93.78
2022-10-17T02:45:22.033Z,94.34
2022-10-17T02:47:59.166Z,93.60
2022-10-17T02:50:39.175Z,93.54
2022-10-17T02:53:18.482Z,93.71
2022-10-17T02:55:58.004Z,94.48
2022-10-17T02:58:34.415Z,94.49
2022-10-17T03:01:08.243Z,93.64
2022-10-17T03:03:39.218Z,95.56
2022-10-17T03:06:10.580Z,96.14
2022-10-17T03:08:44.105Z,96.05
2022-10-17T03:11:16.127Z,97.32
2022-10-17T03:13:47.161Z,98.08
2022-10-17T03:16:18.629Z,97.45
2022-10-17T03:18:50.270Z,96.34
2022-10-17T03:21:22.629Z,95.70
2022-10-17T03:23:56.799Z,96.71
2022-10-17T03:26:29.912Z,97.72
2022-10-17T03:29:01.382Z,97.90
2022-10-17T03:31:33.428Z,98.00
2022-10-17T03:34:05.656Z,97.81
2022-10-17T03:36:37.375Z,96.34
2022-10-17T03:39:11.713Z,97.35
2022-10-17T03:41:43.631Z,96.92
2022-10-17T03:44:14.871Z,96.38
2022-10-17T03:46:46.859Z,97.64
2022-10-17T03:49:18.382Z,97.58
2022-10-17T03:51:50.153Z,97.59
2022-10-17T03:54:24.400Z,98.16
2022-10-17T03:59:28.651Z,98.36
2022-10-17T04:02:00.626Z,98.92
2022-10-17T04:04:31.946Z,99.17
2022-10-17T04:07:03.681Z,99.37
2022-10-17T04:09:37.666Z,99.46
2022-10-17T04:12:09.313Z,99.61
2022-10-17T04:14:41.424Z,98.60
2022-10-17T04:17:13.105Z,98.97
2022-10-17T04:19:44.401Z,99.68
2022-10-17T04:22:16.197Z,100.00
2022-10-17T04:24:51.351Z,100.00
2022-10-17T04:27:23.161Z,100.00
2022-10-17T04:29:54.498Z,99.69
2022-10-17T04:32:26.710Z,100.00
2022-10-17T04:34:58.337Z,100.00
2022-10-17T04:37:32.639Z,100.00
2022-10-17T04:40:07.209Z,100.00
2022-10-17T04:42:38.885Z,100.00
2022-10-17T04:45:16.571Z,100.00
2022-10-17T04:47:48.082Z,100.00
2022-10-17T04:50:22.975Z,100.00
2022-10-17T04:52:54.654Z,100.00
2022-10-17T04:55:31.178Z,100.00
2022-10-17T04:58:04.151Z,100.00
2022-10-17T05:00:36.809Z,100.00
2022-10-17T05:03:12.113Z,98.76
2022-10-17T05:05:46.465Z,100.00
2022-10-17T05:08:18.352Z,100.00
2022-10-17T05:10:55.529Z,100.00
2022-10-17T05:13:27.208Z,100.00
2022-10-17T05:16:02.048Z,100.00
2022-10-17T05:18:33.609Z,100.00
2022-10-17T05:21:06.080Z,100.00
2022-10-17T05:23:37.897Z,100.00
2022-10-17T05:26:15.688Z,100.00
2022-10-17T05:28:47.545Z,100.00
2022-10-17T05:31:19.018Z,100.00
2022-10-17T05:33:53.663Z,100.00
2022-10-17T05:36:28.127Z,100.00
2022-10-17T05:38:59.730Z,100.00
2022-10-17T05:41:34.008Z,100.00
2022-10-17T05:44:05.906Z,100.00
2022-10-17T05:46:40.331Z,100.00
2022-10-17T05:49:19.542Z,100.00
2022-10-17T05:52:04.412Z,100.00
2022-10-17T05:54:36.241Z,100.00
2022-10-17T05:57:10.259Z,100.00
2022-10-17T05:59:43.561Z,100.00
2022-10-17T06:02:16.317Z,100.00
2022-10-17T06:04:49.442Z,100.00
2022-10-17T06:07:21.597Z,100.00
2022-10-17T06:09:54.098Z,100.00
2022-10-17T06:12:29.244Z,99.81
2022-10-17T06:15:02.157Z,100.00
2022-10-17T06:17:34.494Z,97.69
2022-10-17T06:20:07.656Z,98.02
2022-10-17T06:22:39.697Z,97.69
2022-10-17T06:25:13.153Z,98.70
2022-10-17T06:27:48.023Z,97.30
2022-10-17T06:30:20.814Z,97.09
2022-10-17T06:32:53.154Z,97.27
2022-10-17T06:35:25.776Z,98.01
2022-10-17T06:37:58.157Z,97.68
2022-10-17T06:40:30.554Z,97.83
2022-10-17T06:43:04.694Z,95.78
2022-10-17T06:45:36.553Z,97.57
2022-10-17T06:48:09.404Z,97.78
2022-10-17T06:50:41.294Z,97.04
2022-10-17T06:53:12.808Z,96.95
2022-10-17T06:55:44.628Z,96.22
2022-10-17T06:58:18.885Z,96.47
2022-10-17T07:00:50.920Z,95.85
2022-10-17T07:03:22.461Z,96.59
2022-10-17T07:05:56.627Z,96.18
2022-10-17T07:08:28.912Z,95.87
2022-10-17T07:11:01.355Z,94.55
2022-10-17T07:13:38.926Z,93.00
2022-10-17T07:16:11.741Z,94.46
2022-10-17T07:18:43.763Z,93.47
2022-10-17T07:21:15.619Z,92.92
2022-10-17T07:23:47.295Z,91.63
2022-10-17T07:26:22.954Z,90.45
2022-10-17T07:28:58.527Z,87.02
2022-10-17T07:31:30.465Z,86.75
2022-10-17T07:34:03.495Z,86.32
2022-10-17T07:36:36.303Z,85.36
2022-10-17T07:39:08.767Z,86.46
2022-10-17T07:41:41.610Z,84.96
2022-10-17T07:44:16.844Z,85.45
2022-10-17T07:46:49.764Z,84.94
2022-10-17T07:49:22.146Z,86.18
2022-10-17T07:51:55.107Z,84.59
2022-10-17T07:54:27.838Z,83.65
2022-10-17T07:57:00.825Z,82.80
2022-10-17T07:59:36.746Z,82.23
2022-10-17T08:02:10.826Z,81.61
2022-10-17T08:04:43.266Z,81.84
2022-10-17T08:07:22.992Z,80.87
2022-10-17T08:09:57.630Z,79.93
2022-10-17T08:12:32.659Z,78.14
2022-10-17T08:15:11.265Z,77.77
2022-10-17T08:17:43.329Z,77.59
2022-10-17T08:20:15.666Z,76.85
2022-10-17T08:22:55.046Z,76.09
2022-10-17T08:25:26.558Z,75.07
2022-10-17T08:27:58.531Z,74.45
2022-10-17T08:30:33.139Z,73.71
2022-10-17T08:33:04.741Z,72.26
2022-10-17T08:35:36.061Z,70.16
2022-10-17T08:38:12.230Z,67.49
2022-10-17T08:40:45.561Z,64.37
2022-10-17T08:43:35.644Z,60.26
2022-10-17T08:46:11.991Z,58.28
2022-10-17T08:48:46.726Z,57.26
2022-10-17T08:51:23.096Z,55.67
2022-10-17T08:53:58.607Z,53.87
2022-10-17T08:56:48.149Z,52.97
2022-10-17T08:59:30.135Z,52.46
2022-10-17T09:02:07.912Z,51.82
2022-10-17T09:04:54.131Z,51.50
2022-10-17T09:07:32.934Z,51.91
2022-10-17T09:10:13.216Z,52.43
2022-10-17T09:12:55.794Z,51.24
2022-10-17T09:15:41.522Z,52.22
2022-10-17T09:18:24.045Z,51.40
2022-10-17T09:20:59.051Z,50.59
2022-10-17T09:23:36.144Z,48.11
2022-10-17T09:26:14.296Z,48.87
2022-10-17T09:28:47.257Z,47.38
2022-10-17T09:31:27.327Z,46.82
2022-10-17T09:34:05.556Z,46.96
2022-10-17T09:36:39.315Z,47.20
2022-10-17T09:39:18.557Z,46.96
2022-10-17T09:41:53.808Z,46.09
2022-10-17T09:44:27.587Z,47.08
2022-10-17T09:47:19.630Z,47.92
2022-10-17T09:49:54.567Z,48.44
2022-10-17T09:52:33.364Z,47.85
2022-10-17T09:55:08.723Z,45.93
2022-10-17T09:57:57.237Z,46.28
2022-10-17T10:00:31.934Z,47.22
2022-10-17T10:03:17.700Z,47.14
2022-10-17T10:06:08.647Z,45.82
2022-10-17T10:08:52.096Z,45.89
2022-10-17T10:11:28.967Z,46.64
2022-10-17T10:14:15.475Z,45.53
2022-10-17T10:16:48.484Z,43.92
2022-10-17T10:19:29.253Z,44.03
2022-10-17T10:22:06.030Z,44.85
2022-10-17T10:24:37.788Z,46.53
2022-10-17T10:27:14.864Z,46.00
2022-10-17T10:29:53.352Z,46.48
2022-10-17T10:32:28.308Z,45.28
2022-10-17T10:35:04.137Z,44.79
2022-10-17T10:37:43.702Z,44.86
2022-10-17T10:40:21.661Z,44.84
2022-10-17T10:42:56.128Z,43.82
2022-10-17T10:48:40.589Z,41.77
2022-10-17T10:51:22.956Z,41.79
2022-10-17T10:54:02.981Z,41.93
2022-10-17T10:56:44.795Z,42.69
2022-10-17T10:59:25.920Z,43.23
2022-10-17T11:02:05.995Z,41.82
2022-10-17T11:04:45.799Z,42.63
2022-10-17T11:07:25.443Z,43.02
2022-10-17T11:10:06.322Z,42.12
2022-10-17T11:15:25.639Z,43.27
2022-10-17T11:18:03.155Z,42.62
2022-10-17T11:20:44.403Z,42.24
2022-10-17T11:23:24.404Z,42.11
2022-10-17T11:26:03.238Z,43.02
2022-10-17T11:28:37.176Z,43.07
2022-10-17T11:31:15.996Z,43.07
2022-10-17T11:33:52.247Z,45.27
2022-10-17T11:36:33.484Z,44.68
2022-10-17T11:39:09.885Z,44.96
2022-10-17T11:41:48.714Z,45.82
2022-10-17T11:44:26.597Z,46.64
2022-10-17T11:47:03.599Z,46.41
2022-10-17T11:49:41.868Z,46.46
2022-10-17T11:52:51.225Z,46.06
2022-10-17T11:55:25.048Z,45.60
2022-10-17T11:58:16.284Z,45.92
2022-10-17T12:01:00.092Z,46.50
2022-10-17T12:04:00.949Z,46.14
2022-10-17T12:06:49.157Z,46.64
2022-10-17T12:09:38.851Z,46.52
2022-10-17T12:12:11.763Z,46.83
2022-10-17T12:14:51.160Z,47.13
2022-10-17T12:17:33.378Z,46.85
2022-10-17T12:20:31.360Z,46.23
2022-10-17T12:23:24.519Z,46.02
2022-10-17T12:26:01.521Z,46.23
2022-10-17T12:28:44.312Z,46.92
2022-10-17T12:31:33.316Z,46.75
2022-10-17T12:34:08.975Z,47.47
2022-10-17T12:36:42.494Z,46.73
2022-10-17T12:39:56.295Z,47.25
2022-10-17T12:42:36.630Z,47.84
2022-10-17T12:45:38.868Z,48.12
2022-10-17T12:48:15.949Z,48.28
2022-10-17T12:54:03.231Z,48.45
2022-10-17T12:56:40.745Z,48.09
2022-10-17T12:59:19.791Z,48.33
2022-10-17T13:01:54.664Z,47.78
2022-10-17T13:04:30.273Z,48.32
2022-10-17T13:07:03.548Z,48.48
2022-10-17T13:09:39.008Z,48.58
2022-10-17T13:12:17.546Z,48.26
2022-10-17T13:14:51.146Z,48.74
2022-10-17T13:17:29.716Z,48.66
2022-10-17T13:20:04.992Z,49.09
2022-10-17T13:22:37.750Z,49.17
2022-10-17T13:25:12.108Z,48.84
2022-10-17T13:27:44.361Z,48.74
2022-10-17T13:30:31.179Z,48.73
2022-10-17T13:33:05.337Z,48.75
2022-10-17T13:35:59.345Z,48.20
2022-10-17T13:38:37.811Z,48.59
2022-10-17T13:41:35.492Z,48.24
2022-10-17T13:44:16.266Z,49.27
2022-10-17T13:46:48.903Z,48.62
2022-10-17T13:49:26.214Z,49.14
2022-10-17T13:52:04.591Z,49.30
2022-10-17T13:54:41.063Z,48.87
2022-10-17T13:57:22.947Z,49.17
2022-10-17T13:59:58.945Z,50.73
2022-10-17T14:02:32.703Z,49.62
2022-10-17T14:05:23.119Z,50.55
2022-10-17T14:08:11.764Z,50.23
2022-10-17T14:10:46.904Z,49.42
2022-10-17T14:13:40.863Z,49.56
2022-10-17T14:16:13.305Z,49.86
2022-10-17T14:18:47.823Z,49.66
2022-10-17T14:24:32.505Z,48.82
2022-10-17T14:27:05.147Z,49.27
2022-10-17T14:29:55.035Z,50.32
2022-10-17T14:32:27.489Z,49.98
2022-10-17T14:35:18.203Z,51.37
2022-10-17T14:37:56.153Z,50.38
2022-10-17T14:40:32.833Z,50.68
2022-10-17T14:43:09.279Z,51.10
2022-10-17T14:45:43.102Z,50.90
2022-10-17T14:48:20.521Z,51.10
2022-10-17T14:51:15.093Z,51.74
2022-10-17T14:54:05.216Z,51.93
2022-10-17T14:56:45.846Z,52.60
2022-10-17T14:59:51.663Z,52.94
2022-10-17T15:02:18.530Z,53.18
2022-10-17T15:04:51.211Z,53.79
2022-10-17T15:07:24.534Z,53.73
2022-10-17T15:09:57.518Z,54.93
2022-10-17T15:12:33.122Z,54.37
2022-10-17T15:15:05.854Z,54.84
2022-10-17T15:17:38.343Z,55.54
2022-10-17T15:20:18.274Z,55.87
2022-10-17T15:22:50.475Z,56.82
2022-10-17T15:25:24.155Z,56.50
2022-10-17T15:27:59.797Z,57.17
2022-10-17T15:30:35.018Z,57.42
2022-10-17T15:33:08.035Z,57.86
2022-10-17T15:35:43.752Z,57.68
2022-10-17T15:38:20.391Z,57.69
2022-10-17T15:40:52.870Z,58.21
2022-10-17T15:43:27.871Z,58.99
2022-10-17T15:46:00.456Z,58.73
2022-10-17T15:48:35.054Z,59.49
2022-10-17T15:51:08.037Z,59.18
2022-10-17T15:53:41.156Z,60.03
2022-10-17T15:56:24.074Z,60.49
2022-10-17T15:58:59.753Z,60.56
2022-10-17T16:01:34.914Z,60.18
2022-10-17T16:04:07.153Z,62.32
2022-10-17T16:06:39.755Z,62.02
2022-10-17T16:09:12.355Z,63.00
2022-10-17T16:11:47.494Z,62.43
2022-10-17T16:14:22.374Z,63.26
2022-10-17T16:16:54.893Z,62.13
2022-10-17T16:19:27.615Z,63.10
2022-10-17T16:22:04.346Z,63.14
2022-10-17T16:24:42.960Z,62.92
2022-10-17T16:27:15.528Z,64.49
2022-10-17T16:29:50.518Z,63.41
2022-10-17T16:32:23.206Z,63.59
2022-10-17T16:34:55.439Z,63.18
2022-10-17T16:37:28.117Z,64.23
2022-10-17T16:40:00.917Z,64.80
2022-10-17T16:42:33.681Z,64.11
2022-10-17T16:45:09.477Z,64.41
2022-10-17T16:47:41.920Z,63.86
2022-10-17T16:50:14.882Z,64.46
2022-10-17T16:52:47.477Z,64.73
2022-10-17T16:55:21.684Z,64.22
2022-10-17T16:58:01.803Z,64.18
2022-10-17T17:00:37.145Z,64.67
2022-10-17T17:03:10.196Z,65.65
2022-10-17T17:05:42.519Z,65.89
2022-10-17T17:08:15.117Z,65.81
2022-10-17T17:10:50.400Z,66.09
2022-10-17T17:13:23.118Z,65.83
2022-10-17T17:16:06.005Z,66.52
2022-10-17T17:18:39.279Z,66.46
2022-10-17T17:21:13.553Z,66.60
2022-10-17T17:23:47.110Z,66.86
2022-10-17T17:26:21.278Z,66.90
2022-10-17T17:28:54.456Z,66.29
2022-10-17T17:31:31.174Z,66.55
2022-10-17T17:34:04.450Z,67.12
2022-10-17T17:36:39.616Z,67.17
2022-10-17T17:39:15.087Z,67.42
2022-10-17T17:41:47.807Z,67.58
2022-10-17T17:44:20.006Z,67.95
2022-10-17T17:46:54.564Z,68.29
2022-10-17T17:49:26.786Z,68.42
2022-10-17T17:51:58.657Z,68.16
2022-10-17T17:54:31.132Z,69.03
2022-10-17T17:57:02.944Z,68.63
2022-10-17T17:59:34.965Z,69.69
2022-10-17T18:02:09.741Z,69.99
2022-10-17T18:04:41.846Z,70.37
2022-10-17T18:07:13.709Z,70.57
2022-10-17T18:09:45.862Z,71.17
2022-10-17T18:12:17.787Z,71.37
2022-10-17T18:14:50.986Z,71.30
2022-10-17T18:17:26.326Z,71.12
2022-10-17T18:19:58.188Z,72.05
2022-10-17T18:22:29.871Z,72.44
2022-10-17T18:25:02.065Z,72.70
2022-10-17T18:27:33.704Z,73.37
2022-10-17T18:30:06.165Z,74.32
2022-10-17T18:32:40.943Z,74.28
2022-10-17T18:35:13.407Z,74.75
2022-10-17T18:37:45.007Z,74.09
2022-10-17T18:40:16.903Z,74.36
2022-10-17T18:42:48.445Z,73.42
2022-10-17T18:45:20.544Z,74.59
2022-10-17T18:47:55.345Z,75.17
2022-10-17T18:50:28.364Z,74.87
2022-10-17T18:52:59.863Z,75.57
2022-10-17T18:55:32.203Z,75.64
2022-10-17T18:58:03.898Z,75.73
2022-10-17T19:00:35.746Z,76.30
2022-10-17T19:03:09.945Z,77.35
2022-10-17T19:05:41.975Z,76.58
2022-10-17T19:08:14.068Z,76.62
2022-10-17T19:10:46.222Z,77.25
2022-10-17T19:13:21.465Z,77.96
2022-10-17T19:15:53.793Z,77.25
2022-10-17T19:18:27.973Z,77.36
2022-10-17T19:21:05.016Z,77.85
2022-10-17T19:23:37.464Z,78.21
2022-10-17T19:26:11.313Z,78.16
2022-10-17T19:28:44.538Z,78.34
2022-10-17T19:31:18.143Z,79.10
2022-10-17T19:33:53.792Z,78.89
2022-10-17T19:36:30.755Z,78.84
2022-10-17T19:39:07.148Z,80.09
2022-10-17T19:41:39.148Z,80.16
2022-10-17T19:44:10.847Z,79.94
2022-10-17T19:46:44.607Z,79.91
2022-10-17T19:49:20.792Z,80.64
2022-10-17T19:51:52.608Z,79.96
2022-10-17T19:54:24.246Z,81.16
2022-10-17T19:56:56.109Z,80.53
2022-10-17T19:59:27.879Z,81.66
2022-10-17T20:01:59.762Z,82.20
2022-10-17T20:04:34.232Z,82.26
2022-10-17T20:07:06.011Z,81.66
2022-10-17T20:09:37.471Z,82.52
2022-10-17T20:12:09.410Z,82.75
2022-10-17T20:14:41.314Z,82.24
2022-10-17T20:17:13.569Z,83.39
2022-10-17T20:19:48.229Z,82.82
2022-10-17T20:22:30.537Z,83.67
2022-10-17T20:25:03.191Z,83.61
2022-10-17T20:27:35.408Z,83.81
2022-10-17T20:30:08.609Z,83.99
2022-10-17T20:32:40.950Z,84.23
2022-10-17T20:35:15.568Z,83.86
2022-10-17T20:37:47.788Z,84.17
2022-10-17T20:40:35.829Z,84.75
2022-10-17T20:43:10.091Z,84.29
2022-10-17T20:45:51.797Z,83.89
2022-10-17T20:48:24.730Z,84.12
2022-10-17T20:50:59.231Z,84.12
2022-10-17T20:53:37.079Z,84.81
2022-10-17T20:56:24.316Z,84.59
2022-10-17T20:58:58.050Z,84.61
2022-10-17T21:01:30.806Z,84.50
2022-10-17T21:04:26.931Z,83.84
2022-10-17T21:06:57.909Z,84.04
2022-10-17T21:09:30.109Z,84.95
2022-10-17T21:12:02.714Z,84.74
2022-10-17T21:14:36.609Z,85.73
2022-10-17T21:17:08.888Z,85.75
2022-10-17T21:19:41.191Z,86.18
2022-10-17T21:22:15.628Z,85.50
2022-10-17T21:24:47.869Z,86.21
2022-10-17T21:27:21.808Z,86.23
2022-10-17T21:29:54.243Z,86.93
2022-10-17T21:32:47.281Z,87.60
2022-10-17T21:35:18.459Z,87.19
2022-10-17T21:37:54.070Z,86.49
2022-10-17T21:40:26.177Z,87.07
2022-10-17T21:42:58.050Z,87.10
2022-10-17T21:45:31.968Z,87.72
2022-10-17T21:48:13.643Z,88.20
2022-10-17T21:50:46.059Z,88.49
2022-10-17T21:53:20.690Z,89.32
2022-10-17T21:55:52.991Z,89.89
2022-10-17T21:58:24.987Z,89.14
2022-10-17T22:00:57.599Z,89.69
2022-10-17T22:03:30.189Z,89.91
2022-10-17T22:06:12.942Z,90.39
2022-10-17T22:08:57.996Z,91.01
2022-10-17T22:11:32.219Z,91.12
2022-10-17T22:14:06.814Z,91.63
2022-10-17T22:16:39.067Z,90.67
2022-10-17T22:19:15.970Z,91.50
2022-10-17T22:21:49.769Z,91.43
2022-10-17T22:24:25.151Z,91.52
2022-10-17T22:26:57.388Z,90.90
2022-10-17T22:29:30.530Z,90.92
2022-10-17T22:32:18.650Z,91.03
2022-10-17T22:34:57.990Z,90.71
2022-10-17T22:37:30.990Z,90.60
2022-10-17T22:40:05.142Z,89.26
2022-10-17T22:42:36.658Z,89.10
2022-10-17T22:45:11.698Z,90.41
2022-10-17T22:47:43.563Z,89.68
2022-10-17T22:50:15.540Z,89.57
2022-10-17T22:52:47.588Z,88.48
2022-10-17T22:55:22.114Z,88.94
2022-10-17T22:57:54.237Z,89.07
2022-10-17T23:00:26.023Z,89.29
2022-10-17T23:02:58.502Z,89.45
2022-10-17T23:05:30.528Z,89.83
2022-10-17T23:08:02.811Z,89.60
2022-10-17T23:10:37.655Z,89.59
2022-10-17T23:13:09.777Z,89.66
2022-10-17T23:15:41.554Z,89.87
2022-10-17T23:18:14.906Z,89.76
2022-10-17T23:20:47.085Z,89.71
2022-10-17T23:23:20.174Z,89.78
2022-10-17T23:25:54.613Z,89.23
2022-10-17T23:28:26.647Z,89.37
2022-10-17T23:30:58.344Z,89.14
2022-10-17T23:33:30.365Z,88.65
2022-10-17T23:36:01.906Z,88.15
2022-10-17T23:38:33.922Z,88.37
2022-10-17T23:41:08.355Z,88.53
2022-10-17T23:43:40.794Z,88.40
2022-10-17T23:46:13.034Z,88.14
2022-10-17T23:48:45.296Z,88.20
2022-10-17T23:51:17.093Z,88.76
2022-10-17T23:53:49.144Z,87.70
2022-10-17T23:56:23.405Z,87.31
2022-10-17T23:58:55.394Z,87.10
